Time;durP1;ratioP1;P1;durP2;ratioP2;P2;SDS_P1;SDS_P2;PMS_P1;PMS_P2;Temp;Humidity;BMP_temperature;BMP_pressure;BME280_temperature;BME280_humidity;BME280_pressure;Samples;Min_cycle;Max_cycle;Signal;HPM_P1;HPM_P2
2024/02/11 00:01:18;;;;;;;13.32;9.93;;;11.40;99.90;;;;;;5017489;28;20076;-90
2024/02/11 00:03:43;;;;;;;13.18;8.98;;;11.30;99.90;;;;;;5017271;28;20018;-90
2024/02/11 00:06:11;;;;;;;13.35;9.02;;;11.30;99.90;;;;;;5016853;28;20057;-90
2024/02/11 00:08:39;;;;;;;14.63;9.38;;;11.30;99.90;;;;;;5016771;28;20110;-90
2024/02/11 00:11:06;;;;;;;12.55;9.57;;;11.30;99.90;;;;;;5015337;28;20026;-91
2024/02/11 00:13:32;;;;;;;12.88;9.05;;;11.30;99.90;;;;;;5017634;28;20037;-90
2024/02/11 00:16:01;;;;;;;13.82;9.80;;;11.30;99.90;;;;;;5019685;28;20032;-90
2024/02/11 00:18:28;;;;;;;12.88;9.75;;;11.20;99.90;;;;;;5017524;28;20033;-90
2024/02/11 00:20:57;;;;;;;14.48;10.85;;;11.20;99.90;;;;;;5015643;28;20038;-90
2024/02/11 00:23:23;;;;;;;14.88;9.93;;;11.30;99.90;;;;;;5015582;28;20034;-91
2024/02/11 00:25:54;;;;;;;12.70;9.32;;;11.30;99.90;;;;;;5015129;28;20025;-90
2024/02/11 00:28:25;;;;;;;14.10;10.00;;;11.30;99.90;;;;;;5016043;28;20058;-90
2024/02/11 00:30:53;;;;;;;13.93;10.00;;;11.30;99.90;;;;;;5015027;28;20113;-90
2024/02/11 00:33:20;;;;;;;14.95;9.73;;;11.20;99.90;;;;;;5014896;28;20029;-89
2024/02/11 00:35:48;;;;;;;14.80;10.25;;;11.30;99.90;;;;;;5016299;28;20466;-89
2024/02/11 00:38:15;;;;;;;12.77;9.43;;;11.30;99.90;;;;;;5016084;28;20057;-89
2024/02/11 00:40:41;;;;;;;13.52;9.43;;;11.30;99.90;;;;;;5015449;28;20493;-89
2024/02/11 00:43:09;;;;;;;15.57;11.20;;;11.30;99.90;;;;;;5014518;28;20025;-89
2024/02/11 00:45:35;;;;;;;13.65;10.27;;;11.30;99.90;;;;;;5014575;28;20018;-90
2024/02/11 00:48:03;;;;;;;14.27;10.23;;;11.20;99.90;;;;;;5013835;28;20470;-90
2024/02/11 00:50:32;;;;;;;14.07;9.98;;;11.30;99.90;;;;;;5031174;28;20022;-90
2024/02/11 00:53:01;;;;;;;13.73;10.10;;;11.30;99.90;;;;;;5015735;28;20025;-91
2024/02/11 00:55:26;;;;;;;13.68;9.48;;;11.20;99.90;;;;;;5015463;28;20033;-90
2024/02/11 00:57:52;;;;;;;14.15;9.88;;;11.30;99.90;;;;;;5015561;28;20021;-91
2024/02/11 01:00:18;;;;;;;15.68;10.45;;;11.30;99.90;;;;;;5014412;28;20021;-90
2024/02/11 01:02:44;;;;;;;13.30;9.75;;;11.20;99.90;;;;;;5016031;28;20517;-91
2024/02/11 01:05:12;;;;;;;14.63;10.48;;;11.30;99.90;;;;;;5014730;28;20025;-91
2024/02/11 01:07:39;;;;;;;14.35;10.23;;;11.30;99.90;;;;;;5014196;28;20026;-91
2024/02/11 01:10:12;;;;;;;14.23;9.48;;;11.20;99.90;;;;;;5014381;28;20026;-90
2024/02/11 01:12:42;;;;;;;13.73;9.93;;;11.20;99.90;;;;;;5015271;28;20097;-90
2024/02/11 01:15:11;;;;;;;13.20;9.55;;;11.20;99.90;;;;;;5015189;28;20033;-90
2024/02/11 01:17:38;;;;;;;13.77;9.80;;;11.20;99.90;;;;;;5014252;28;20389;-91
2024/02/11 01:20:05;;;;;;;12.32;9.20;;;11.20;99.90;;;;;;5015900;28;20026;-91
2024/02/11 01:22:31;;;;;;;12.65;9.32;;;11.20;99.90;;;;;;5014817;28;20037;-91
2024/02/11 01:24:57;;;;;;;11.93;9.02;;;11.20;99.90;;;;;;5015257;28;20021;-90
2024/02/11 01:27:22;;;;;;;14.40;9.77;;;11.20;99.90;;;;;;5014057;28;20175;-91
2024/02/11 01:29:49;;;;;;;13.15;9.13;;;11.20;99.90;;;;;;5015518;28;20129;-91
2024/02/11 01:32:15;;;;;;;14.50;9.15;;;11.20;99.90;;;;;;5014313;28;20108;-90
2024/02/11 01:34:41;;;;;;;12.05;9.32;;;11.20;99.90;;;;;;5015513;28;20041;-91
2024/02/11 01:37:07;;;;;;;12.18;8.40;;;11.20;99.90;;;;;;5015646;28;20097;-91
2024/02/11 01:39:33;;;;;;;13.18;9.77;;;11.20;99.90;;;;;;5014440;28;20030;-90
2024/02/11 01:42:02;;;;;;;12.27;9.50;;;11.20;99.90;;;;;;5014676;28;20022;-90
2024/02/11 01:44:28;;;;;;;13.05;9.23;;;11.10;99.90;;;;;;5013800;28;20018;-91
2024/02/11 01:46:53;;;;;;;12.55;9.50;;;11.10;99.90;;;;;;5013995;28;20026;-91
2024/02/11 01:49:22;;;;;;;13.55;9.07;;;11.20;99.90;;;;;;5013972;28;20025;-91
2024/02/11 01:51:49;;;;;;;13.30;9.35;;;11.10;99.90;;;;;;5014818;28;20018;-91
2024/02/11 01:54:18;;;;;;;13.23;9.40;;;11.10;99.90;;;;;;5013877;28;20022;-91
2024/02/11 01:56:48;;;;;;;13.32;9.60;;;11.10;99.90;;;;;;5014204;28;20058;-91
2024/02/11 01:59:14;;;;;;;12.80;9.60;;;11.20;99.90;;;;;;5015535;28;20030;-92
2024/02/11 02:01:40;;;;;;;13.43;9.82;;;11.10;99.90;;;;;;5016730;28;20105;-90
2024/02/11 02:04:07;;;;;;;13.25;9.43;;;11.10;99.90;;;;;;5018112;28;20049;-92
2024/02/11 02:06:33;;;;;;;13.32;10.10;;;11.10;99.90;;;;;;5018858;28;20045;-91
2024/02/11 02:09:00;;;;;;;14.90;9.95;;;11.10;99.90;;;;;;5017870;28;20014;-89
2024/02/11 02:11:27;;;;;;;13.77;9.65;;;11.10;99.90;;;;;;5017454;28;20053;-91
2024/02/11 02:13:53;;;;;;;13.23;9.85;;;11.10;99.90;;;;;;5029179;28;20069;-92
2024/02/11 02:16:22;;;;;;;13.10;10.10;;;11.10;99.90;;;;;;5024988;28;20022;-91
2024/02/11 02:18:51;;;;;;;13.68;9.15;;;11.10;99.90;;;;;;5020125;28;20046;-91
2024/02/11 02:21:18;;;;;;;14.52;10.05;;;11.00;99.90;;;;;;5019176;28;20022;-91
2024/02/11 02:23:45;;;;;;;12.75;9.65;;;11.00;99.90;;;;;;5017673;28;20029;-92
2024/02/11 02:26:11;;;;;;;12.85;9.70;;;11.00;99.90;;;;;;5018223;28;20025;-91
2024/02/11 02:28:37;;;;;;;15.90;10.55;;;11.00;99.90;;;;;;5016968;28;20490;-91
2024/02/11 02:31:05;;;;;;;13.55;10.13;;;11.00;99.90;;;;;;5019352;28;20025;-91
2024/02/11 02:33:31;;;;;;;13.85;10.18;;;11.00;99.90;;;;;;5018497;28;20092;-92
2024/02/11 02:35:57;;;;;;;13.20;9.88;;;11.00;99.90;;;;;;5016931;28;20021;-91
2024/02/11 02:38:22;;;;;;;12.57;9.50;;;11.00;99.90;;;;;;5017948;28;20054;-92
2024/02/11 02:40:48;;;;;;;15.43;10.30;;;11.00;99.90;;;;;;5017917;28;20098;-91
2024/02/11 02:43:14;;;;;;;13.93;10.25;;;11.00;99.90;;;;;;5016978;28;20482;-91
2024/02/11 02:45:41;;;;;;;14.10;9.70;;;11.10;99.90;;;;;;5016340;28;20120;-91
2024/02/11 02:48:07;;;;;;;13.57;9.98;;;11.10;99.90;;;;;;5016904;28;20079;-91
2024/02/11 02:50:34;;;;;;;15.32;10.02;;;11.10;99.90;;;;;;5017597;28;20498;-91
2024/02/11 02:53:00;;;;;;;13.20;10.15;;;11.10;99.90;;;;;;5017013;28;20022;-91
2024/02/11 02:55:26;;;;;;;14.90;10.63;;;11.10;99.90;;;;;;5017394;28;20032;-91
2024/02/11 02:57:51;;;;;;;16.17;11.30;;;11.10;99.90;;;;;;5017860;28;20049;-91
2024/02/11 03:00:21;;;;;;;14.48;10.07;;;11.10;99.90;;;;;;5017786;28;20386;-91
2024/02/11 03:02:51;;;;;;;14.48;10.10;;;11.10;99.90;;;;;;5017720;28;20097;-91
2024/02/11 03:05:17;;;;;;;15.50;10.85;;;11.10;99.90;;;;;;5016342;28;20060;-90
2024/02/11 03:07:42;;;;;;;13.40;10.25;;;11.10;99.90;;;;;;5016551;28;20018;-90
2024/02/11 03:10:08;;;;;;;13.77;10.50;;;11.10;99.90;;;;;;5016111;28;20109;-91
2024/02/11 03:12:34;;;;;;;15.27;11.20;;;11.10;99.90;;;;;;5016044;28;20109;-91
2024/02/11 03:14:59;;;;;;;14.43;10.88;;;11.00;99.90;;;;;;5016682;28;20026;-91
2024/02/11 03:17:25;;;;;;;15.32;11.30;;;11.00;99.90;;;;;;5015921;28;20029;-91
2024/02/11 03:19:51;;;;;;;14.13;11.07;;;11.00;99.90;;;;;;5020325;28;20057;-92
2024/02/11 03:22:17;;;;;;;15.30;10.82;;;11.00;99.90;;;;;;5024357;28;20082;-92
2024/02/11 03:24:44;;;;;;;16.20;11.32;;;11.00;99.90;;;;;;5025612;28;20066;-92
2024/02/11 03:27:10;;;;;;;15.63;10.75;;;11.00;99.90;;;;;;5026190;28;20053;-92
2024/02/11 03:29:36;;;;;;;14.25;10.30;;;11.00;99.90;;;;;;5033219;28;20077;-91
2024/02/11 03:32:02;;;;;;;14.95;10.32;;;11.00;99.90;;;;;;5036583;28;20034;-91
2024/02/11 03:34:28;;;;;;;14.27;10.43;;;10.90;99.90;;;;;;5034798;28;20009;-91
2024/02/11 03:36:54;;;;;;;17.95;10.95;;;10.90;99.90;;;;;;5035505;28;20036;-90
2024/02/11 03:39:20;;;;;;;13.98;10.27;;;10.90;99.90;;;;;;5033218;28;20045;-91
2024/02/11 03:41:46;;;;;;;15.07;10.80;;;10.90;99.90;;;;;;5021452;28;20018;-91
2024/02/11 03:44:13;;;;;;;15.57;11.65;;;10.90;99.90;;;;;;5017806;28;20073;-91
2024/02/11 03:46:39;;;;;;;14.32;10.93;;;10.90;99.90;;;;;;4999911;28;20088;-91
2024/02/11 03:49:04;;;;;;;16.23;11.68;;;10.80;99.90;;;;;;5015849;28;20033;-89
2024/02/11 03:51:31;;;;;;;16.70;11.65;;;10.80;99.90;;;;;;5015916;28;20022;-90
2024/02/11 03:53:59;;;;;;;15.57;11.38;;;10.80;99.90;;;;;;5016105;28;20117;-91
2024/02/11 03:56:26;;;;;;;16.42;11.15;;;10.80;99.90;;;;;;5016044;28;20102;-91
2024/02/11 03:58:52;;;;;;;14.27;10.73;;;10.70;99.90;;;;;;5015399;28;20029;-91
2024/02/11 04:01:18;;;;;;;15.68;10.85;;;10.80;99.90;;;;;;5015433;28;20034;-91
2024/02/11 04:03:44;;;;;;;16.15;10.75;;;10.80;99.90;;;;;;5016544;28;20028;-91
2024/02/11 04:06:11;;;;;;;15.07;11.35;;;10.70;99.90;;;;;;5016716;28;20355;-90
2024/02/11 04:08:42;;;;;;;15.30;12.23;;;10.70;99.90;;;;;;5015466;28;20121;-91
2024/02/11 04:11:09;;;;;;;16.00;11.35;;;10.70;99.90;;;;;;5016401;28;20036;-92
2024/02/11 04:13:36;;;;;;;15.80;11.57;;;10.70;99.90;;;;;;5019653;28;20087;-92
2024/02/11 04:16:11;;;;;;;16.10;12.88;;;10.70;99.90;;;;;;5017299;28;20036;-91
2024/02/11 04:18:38;;;;;;;17.00;12.52;;;10.70;99.90;;;;;;5015461;28;20022;-90
2024/02/11 04:21:05;;;;;;;17.58;12.65;;;10.70;99.90;;;;;;5014998;28;20030;-91
2024/02/11 04:23:34;;;;;;;15.07;11.30;;;10.70;99.90;;;;;;5014547;28;20021;-91
2024/02/11 04:26:08;;;;;;;17.10;12.70;;;10.70;99.90;;;;;;5014812;28;20042;-91
2024/02/11 04:28:37;;;;;;;15.18;11.82;;;10.70;99.90;;;;;;5015025;28;20053;-92
2024/02/11 04:31:09;;;;;;;15.30;12.13;;;10.70;99.90;;;;;;5016351;28;20018;-91
2024/02/11 04:33:39;;;;;;;15.68;12.00;;;10.60;99.90;;;;;;5015824;28;20026;-92
2024/02/11 04:36:06;;;;;;;15.85;12.10;;;10.70;99.90;;;;;;5014880;28;20163;-91
2024/02/11 04:38:34;;;;;;;16.80;12.10;;;10.70;99.90;;;;;;5015563;28;20105;-91
2024/02/11 04:41:00;;;;;;;16.67;12.43;;;10.70;99.90;;;;;;5014562;28;20037;-92
2024/02/11 04:43:26;;;;;;;15.70;12.15;;;10.60;99.90;;;;;;5015792;28;20014;-92
2024/02/11 04:45:52;;;;;;;16.42;12.90;;;10.70;99.90;;;;;;5014688;28;20029;-91
2024/02/11 04:48:24;;;;;;;15.95;12.23;;;10.60;99.90;;;;;;5015312;28;20049;-91
2024/02/11 04:50:51;;;;;;;16.27;12.50;;;10.70;99.90;;;;;;5014722;28;20022;-91
2024/02/11 04:53:18;;;;;;;15.73;12.18;;;10.60;99.90;;;;;;5014450;28;20478;-91
2024/02/11 04:55:46;;;;;;;17.90;12.57;;;10.70;99.90;;;;;;5014433;28;20529;-91
2024/02/11 04:58:18;;;;;;;16.27;12.02;;;10.60;99.90;;;;;;5015814;28;20049;-91
2024/02/11 05:00:47;;;;;;;15.07;11.98;;;10.70;99.90;;;;;;5014836;28;20040;-92
2024/02/11 05:03:17;;;;;;;15.45;12.63;;;10.60;99.90;;;;;;5015529;28;20050;-91
2024/02/11 05:05:43;;;;;;;17.73;13.38;;;10.70;99.90;;;;;;5015713;28;20017;-91
2024/02/11 05:08:10;;;;;;;16.92;13.30;;;10.60;99.90;;;;;;5015621;28;20034;-90
2024/02/11 05:10:37;;;;;;;17.38;14.10;;;10.60;99.90;;;;;;5016801;28;20049;-91
2024/02/11 05:13:08;;;;;;;18.27;13.68;;;10.60;99.90;;;;;;5015592;28;20528;-91
2024/02/11 05:15:42;;;;;;;17.05;12.70;;;10.70;99.90;;;;;;5014370;28;20390;-91
2024/02/11 05:18:11;;;;;;;17.40;12.82;;;10.70;99.90;;;;;;5014019;28;20022;-92
2024/02/11 05:20:37;;;;;;;19.35;13.57;;;10.70;99.90;;;;;;5014892;28;20041;-91
2024/02/11 05:23:08;;;;;;;18.02;12.75;;;10.80;99.90;;;;;;5013973;28;20021;-91
2024/02/11 05:25:34;;;;;;;15.60;12.35;;;10.80;99.90;;;;;;5014349;28;20072;-91
2024/02/11 05:28:09;;;;;;;17.10;13.27;;;10.80;99.90;;;;;;5014635;28;20025;-90
2024/02/11 05:30:42;;;;;;;16.42;12.70;;;10.80;99.90;;;;;;5013752;28;20029;-91
2024/02/11 05:33:09;;;;;;;17.92;13.80;;;10.80;99.90;;;;;;5030662;28;20037;-92
2024/02/11 05:35:37;;;;;;;17.23;12.85;;;10.70;99.90;;;;;;5016806;28;20029;-91
2024/02/11 05:38:05;;;;;;;16.98;13.05;;;10.80;99.90;;;;;;5017737;28;20064;-90
2024/02/11 05:40:36;;;;;;;18.13;13.52;;;10.80;99.90;;;;;;5018613;28;20060;-91
2024/02/11 05:43:05;;;;;;;19.15;13.82;;;10.70;99.90;;;;;;5018118;28;20059;-91
2024/02/11 05:45:31;;;;;;;17.90;13.57;;;10.80;99.90;;;;;;5034284;28;20030;-92
2024/02/11 05:47:57;;;;;;;16.80;12.23;;;10.80;99.90;;;;;;5018389;28;20026;-91
2024/02/11 05:50:23;;;;;;;18.25;12.95;;;10.80;99.90;;;;;;5017658;28;20030;-92
2024/02/11 05:52:50;;;;;;;17.77;13.43;;;10.80;99.90;;;;;;5017642;28;20026;-91
2024/02/11 05:55:16;;;;;;;19.67;14.18;;;10.80;99.90;;;;;;5017823;28;20025;-91
2024/02/11 05:57:43;;;;;;;17.52;13.15;;;10.80;99.90;;;;;;5017336;28;20025;-91
2024/02/11 06:00:14;;;;;;;16.95;12.57;;;10.80;99.90;;;;;;5017527;28;20080;-92
2024/02/11 06:02:44;;;;;;;15.98;12.10;;;10.80;99.90;;;;;;5017659;28;20041;-91
2024/02/11 06:05:14;;;;;;;17.58;13.40;;;10.80;99.90;;;;;;4998426;28;20084;-91
2024/02/11 06:07:45;;;;;;;18.13;12.05;;;10.80;99.90;;;;;;4998332;28;20085;-91
2024/02/11 06:10:15;;;;;;;18.50;14.05;;;10.90;99.90;;;;;;5000215;28;20493;-91
2024/02/11 06:12:42;;;;;;;17.27;12.98;;;10.80;99.90;;;;;;5002884;28;20010;-92
2024/02/11 06:15:13;;;;;;;19.70;12.65;;;10.90;99.90;;;;;;5007252;28;20037;-91
2024/02/11 06:17:40;;;;;;;16.40;12.18;;;10.90;99.90;;;;;;5001689;28;20037;-92
2024/02/11 06:20:09;;;;;;;18.38;12.98;;;10.90;99.90;;;;;;5000732;28;20038;-92
2024/02/11 06:22:37;;;;;;;16.52;12.63;;;10.90;99.90;;;;;;4998596;28;20466;-91
2024/02/11 06:25:04;;;;;;;17.70;12.45;;;10.90;99.90;;;;;;4997922;28;20053;-92
2024/02/11 06:27:31;;;;;;;16.33;11.65;;;10.90;99.90;;;;;;4998917;28;20092;-91
2024/02/11 06:29:57;;;;;;;19.33;13.85;;;10.90;99.90;;;;;;5000468;28;20053;-92
2024/02/11 06:32:23;;;;;;;19.17;14.60;;;10.90;99.90;;;;;;5006722;28;20026;-92
2024/02/11 06:34:51;;;;;;;19.60;13.93;;;10.90;99.90;;;;;;5003841;28;20026;-92
2024/02/11 06:37:16;;;;;;;21.40;13.05;;;10.80;99.90;;;;;;4999986;28;20027;-92
2024/02/11 06:39:42;;;;;;;16.73;10.98;;;10.70;99.90;;;;;;5002684;28;20034;-90
2024/02/11 06:42:09;;;;;;;13.48;9.70;;;10.70;99.90;;;;;;5006144;28;20025;-89
2024/02/11 06:44:38;;;;;;;13.30;8.65;;;10.60;99.90;;;;;;5010043;28;20474;-92
2024/02/11 06:47:14;;;;;;;11.90;7.78;;;10.50;99.90;;;;;;5020463;28;20014;-92
2024/02/11 06:49:39;;;;;;;10.45;6.57;;;10.40;99.90;;;;;;5021810;28;20017;-90
2024/02/11 06:52:09;;;;;;;12.27;8.07;;;10.40;99.90;;;;;;5017881;28;20370;-92
2024/02/11 06:54:42;;;;;;;10.03;6.97;;;10.30;99.90;;;;;;5015300;28;20045;-91
2024/02/11 06:57:09;;;;;;;8.55;5.47;;;10.20;99.90;;;;;;5016901;28;20037;-91
2024/02/11 06:59:36;;;;;;;13.97;8.23;;;10.20;99.90;;;;;;5018013;28;20034;-92
2024/02/11 07:02:04;;;;;;;13.77;8.00;;;10.10;99.90;;;;;;5021307;28;20088;-91
2024/02/11 07:04:33;;;;;;;12.65;8.32;;;10.00;99.90;;;;;;5021259;28;20045;-92
2024/02/11 07:06:59;;;;;;;16.77;10.10;;;10.00;99.90;;;;;;5022205;28;20022;-91
2024/02/11 07:09:26;;;;;;;18.63;11.17;;;9.90;99.90;;;;;;5027137;28;20022;-91
2024/02/11 07:11:52;;;;;;;19.87;11.53;;;9.80;99.90;;;;;;5034684;28;20085;-90
2024/02/11 07:14:21;;;;;;;19.37;13.30;;;9.80;99.90;;;;;;5037837;28;20026;-90
2024/02/11 07:16:49;;;;;;;19.93;12.47;;;9.80;99.90;;;;;;5034438;28;20041;-87
2024/02/11 07:19:15;;;;;;;21.07;14.20;;;9.70;99.90;;;;;;5034145;28;20038;-92
2024/02/11 07:21:42;;;;;;;24.73;15.73;;;9.60;99.90;;;;;;5026617;28;20486;-92
2024/02/11 07:24:08;;;;;;;27.00;16.80;;;9.50;99.90;;;;;;5019483;28;20045;-90
2024/02/11 07:26:35;;;;;;;28.40;16.33;;;9.50;99.90;;;;;;5018948;28;20117;-91
2024/02/11 07:29:01;;;;;;;25.60;15.27;;;9.50;99.90;;;;;;5017755;28;20052;-92
2024/02/11 07:31:27;;;;;;;30.10;16.30;;;9.40;99.90;;;;;;5017360;28;20015;-91
2024/02/11 07:33:54;;;;;;;28.87;16.60;;;9.40;99.90;;;;;;5016675;28;20029;-93
2024/02/11 07:36:22;;;;;;;28.83;15.13;;;9.30;99.90;;;;;;5019671;28;20025;-93
2024/02/11 07:38:53;;;;;;;30.70;16.23;;;9.30;99.90;;;;;;5016752;28;20121;-90
2024/02/11 07:41:19;;;;;;;30.80;16.53;;;9.30;99.90;;;;;;5017993;28;20057;-91
2024/02/11 07:43:46;;;;;;;32.57;15.90;;;9.30;99.90;;;;;;5018084;28;20026;-90
2024/02/11 07:46:15;;;;;;;27.17;14.83;;;9.30;99.90;;;;;;5016421;28;20033;-91
2024/02/11 07:48:41;;;;;;;30.63;13.43;;;9.30;99.90;;;;;;5015380;28;20022;-90
2024/02/11 07:51:07;;;;;;;25.10;13.10;;;9.30;99.90;;;;;;5016214;28;20080;-91
2024/02/11 07:53:36;;;;;;;24.40;13.57;;;9.30;99.90;;;;;;5015617;28;20022;-91
2024/02/11 07:56:02;;;;;;;25.77;14.10;;;9.30;99.90;;;;;;5016597;28;20026;-92
2024/02/11 07:58:28;;;;;;;25.33;12.93;;;9.30;99.90;;;;;;5014741;28;20026;-91
2024/02/11 08:00:54;;;;;;;23.30;12.70;;;9.30;99.90;;;;;;5015696;28;20050;-91
2024/02/11 08:03:20;;;;;;;24.23;11.70;;;9.40;99.90;;;;;;5015738;28;20018;-89
2024/02/11 08:05:46;;;;;;;24.97;11.50;;;9.30;99.90;;;;;;5015558;28;20066;-89
2024/02/11 08:08:12;;;;;;;25.60;11.93;;;9.30;99.90;;;;;;5016202;28;20061;-89
2024/02/11 08:10:38;;;;;;;23.80;11.50;;;9.30;99.90;;;;;;5015859;28;20029;-89
2024/02/11 08:13:07;;;;;;;21.23;10.60;;;9.30;99.90;;;;;;5016984;28;20022;-89
2024/02/11 08:15:34;;;;;;;23.53;9.63;;;9.30;99.90;;;;;;5013285;28;20018;-88
2024/02/11 08:18:04;;;;;;;23.67;9.10;;;9.20;99.90;;;;;;5015268;28;20025;-89
2024/02/11 08:20:33;;;;;;;27.87;9.60;;;9.20;99.90;;;;;;5015136;28;20057;-89
2024/02/11 08:22:58;;;;;;;23.93;10.57;;;9.30;99.90;;;;;;5015856;28;20607;-89
2024/02/11 08:25:24;;;;;;;20.70;9.03;;;9.30;99.90;;;;;;5014685;28;20065;-89
2024/02/11 08:27:50;;;;;;;19.83;8.50;;;9.20;99.90;;;;;;5015560;28;20033;-91
2024/02/11 08:30:16;;;;;;;19.63;8.37;;;9.30;99.90;;;;;;5016010;28;20089;-92
2024/02/11 08:32:42;;;;;;;22.70;8.73;;;9.30;99.90;;;;;;5017037;28;20021;-92
2024/02/11 08:35:09;;;;;;;15.70;8.10;;;9.30;99.90;;;;;;5014839;28;20461;-91
2024/02/11 08:37:38;;;;;;;20.27;8.73;;;9.30;99.90;;;;;;5015631;28;20029;-92
2024/02/11 08:40:04;;;;;;;18.50;8.20;;;9.40;99.90;;;;;;5015411;28;20049;-91
2024/02/11 08:42:30;;;;;;;18.33;8.07;;;9.40;99.90;;;;;;5014945;28;20022;-91
2024/02/11 08:44:56;;;;;;;24.00;10.03;;;9.40;99.90;;;;;;5017188;28;20025;-92
2024/02/11 08:47:22;;;;;;;20.93;10.40;;;9.50;99.90;;;;;;5017565;28;20025;-92
2024/02/11 08:49:48;;;;;;;21.70;10.37;;;9.50;99.90;;;;;;5016079;28;20119;-92
2024/02/11 08:52:15;;;;;;;21.40;10.20;;;9.50;99.90;;;;;;5015541;28;20099;-92
2024/02/11 08:54:41;;;;;;;19.97;9.77;;;9.50;99.90;;;;;;5017318;28;20605;-93
2024/02/11 08:57:08;;;;;;;21.90;9.60;;;9.60;99.90;;;;;;5017505;28;20409;-92
2024/02/11 08:59:35;;;;;;;27.73;11.33;;;9.60;99.90;;;;;;5021991;28;20034;-91
2024/02/11 09:02:01;;;;;;;25.77;12.07;;;9.60;99.90;;;;;;5015978;28;20113;-91
2024/02/11 09:04:27;;;;;;;25.33;11.70;;;9.60;99.90;;;;;;5013183;28;20049;-92
2024/02/11 09:06:55;;;;;;;22.47;12.50;;;9.60;99.90;;;;;;5015420;28;20018;-93
2024/02/11 09:09:29;;;;;;;25.60;14.10;;;9.70;99.90;;;;;;5016735;28;20049;-92
2024/02/11 09:11:58;;;;;;;;;;;9.60;99.90;;;;;;5002976;28;20021;-93
2024/02/11 09:14:28;;;;;;;24.17;12.30;;;9.70;99.90;;;;;;5014251;28;20137;-92
2024/02/11 09:16:58;;;;;;;24.83;13.15;;;9.70;99.90;;;;;;5015423;28;20525;-92
2024/02/11 09:19:25;;;;;;;22.40;14.83;;;9.80;99.90;;;;;;5001875;28;20034;-92
2024/02/11 09:21:54;;;;;;;24.60;14.53;;;9.80;99.90;;;;;;5014190;28;20096;-92
2024/02/11 09:24:20;;;;;;;26.47;14.27;;;9.80;99.90;;;;;;5015816;28;20022;-89
2024/02/11 09:26:45;;;;;;;25.10;13.90;;;9.90;99.90;;;;;;5015151;28;20026;-93
2024/02/11 09:29:12;;;;;;;22.30;12.57;;;9.90;99.90;;;;;;5043951;22;20049;-91
2024/02/11 09:31:39;;;;;;;25.67;13.70;;;9.90;99.90;;;;;;5038038;28;20020;-92
2024/02/11 09:34:05;;;;;;;25.40;14.00;;;10.00;99.90;;;;;;5032361;28;20116;-91
2024/02/11 09:36:33;;;;;;;27.00;13.10;;;10.10;99.90;;;;;;5034596;28;20045;-90
2024/02/11 09:38:59;;;;;;;26.77;14.93;;;10.10;99.90;;;;;;5055628;28;20477;-91
2024/02/11 09:41:29;;;;;;;21.57;12.37;;;10.10;99.90;;;;;;5038506;28;20043;-92
2024/02/11 09:43:58;;;;;;;18.80;10.32;;;10.10;99.90;;;;;;5039006;28;20028;-88
2024/02/11 09:46:26;;;;;;;25.80;12.65;;;10.20;99.90;;;;;;5057665;28;20062;-93
2024/02/11 09:48:55;;;;;;;21.08;10.50;;;10.20;99.90;;;;;;5037250;28;20032;-91
2024/02/11 09:51:26;;;;;;;18.97;11.70;;;10.20;99.90;;;;;;5038844;28;20033;-90
2024/02/11 09:53:56;;;;;;;25.10;12.00;;;10.30;99.90;;;;;;5037491;28;20033;-90
2024/02/11 09:56:22;;;;;;;24.23;12.27;;;10.30;99.90;;;;;;5037850;28;20091;-92
2024/02/11 09:58:47;;;;;;;21.70;10.93;;;10.30;99.90;;;;;;5036855;28;20032;-92
2024/02/11 10:01:14;;;;;;;22.33;11.68;;;10.30;99.90;;;;;;5036798;28;20063;-91
2024/02/11 10:03:41;;;;;;;23.15;11.52;;;10.30;99.90;;;;;;5053896;28;20036;-90
2024/02/11 10:06:11;;;;;;;25.95;11.82;;;10.40;99.90;;;;;;5054136;28;20043;-92
2024/02/11 10:08:36;;;;;;;21.92;12.43;;;10.40;99.90;;;;;;5037237;28;20009;-93
2024/02/11 10:11:07;;;;;;;21.77;11.25;;;10.40;99.90;;;;;;5039560;28;20032;-91
2024/02/11 10:13:37;;;;;;;23.67;11.88;;;10.40;99.90;;;;;;5059354;28;20028;-91
2024/02/11 10:16:07;;;;;;;22.45;11.73;;;10.40;99.90;;;;;;5058571;28;20052;-92
2024/02/11 10:18:33;;;;;;;22.58;11.00;;;10.50;99.90;;;;;;5037023;28;20061;-93
2024/02/11 10:21:00;;;;;;;24.60;11.57;;;10.50;99.90;;;;;;5037278;28;20029;-93
2024/02/11 10:23:26;;;;;;;17.77;10.93;;;10.50;99.90;;;;;;5041638;28;20017;-92
2024/02/11 10:25:53;;;;;;;28.63;12.63;;;10.60;99.90;;;;;;5040869;28;20078;-93
2024/02/11 10:28:19;;;;;;;28.08;13.18;;;10.50;99.90;;;;;;5040231;28;20127;-92
2024/02/11 10:30:45;;;;;;;23.15;13.20;;;10.60;99.90;;;;;;5041575;28;20191;-93
2024/02/11 10:33:11;;;;;;;24.02;13.95;;;10.60;99.90;;;;;;5058513;28;20487;-92
2024/02/11 10:35:37;;;;;;;28.00;14.18;;;10.60;99.90;;;;;;5039907;28;20025;-93
2024/02/11 10:38:07;;;;;;;21.05;12.55;;;10.70;99.90;;;;;;5057772;28;20033;-92
2024/02/11 10:40:37;;;;;;;30.08;13.18;;;10.70;99.90;;;;;;5058273;28;20081;-93
2024/02/11 10:43:08;;;;;;;25.02;13.35;;;10.70;99.90;;;;;;5040741;28;20029;-90
2024/02/11 10:45:35;;;;;;;28.80;15.50;;;10.70;99.90;;;;;;5045049;28;20029;-93
2024/02/11 10:48:02;;;;;;;26.83;16.25;;;10.70;99.90;;;;;;5057471;28;20012;-92
2024/02/11 10:50:28;;;;;;;31.00;16.00;;;10.70;99.90;;;;;;5057601;28;20018;-92
2024/02/11 10:53:00;;;;;;;29.42;15.35;;;10.70;99.90;;;;;;5058111;28;20033;-92
2024/02/11 10:55:29;;;;;;;22.27;14.13;;;10.70;99.90;;;;;;5051973;28;20025;-93
2024/02/11 10:57:55;;;;;;;25.55;13.63;;;10.70;99.90;;;;;;5070503;28;20052;-92
2024/02/11 11:00:24;;;;;;;27.85;14.13;;;10.70;99.90;;;;;;5068944;28;20043;-91
2024/02/11 11:02:53;;;;;;;25.40;12.90;;;10.70;99.90;;;;;;5053965;28;20389;-91
2024/02/11 11:05:22;;;;;;;29.00;13.52;;;10.60;99.90;;;;;;5052022;28;20024;-92
2024/02/11 11:07:51;;;;;;;24.88;11.52;;;10.60;99.90;;;;;;5039814;28;20021;-91
2024/02/11 11:10:18;;;;;;;23.60;10.98;;;10.60;99.90;;;;;;5040906;28;20017;-92
2024/02/11 11:12:54;;;;;;;22.77;11.07;;;10.60;99.90;;;;;;5039910;28;20017;-92
2024/02/11 11:15:27;;;;;;;23.35;10.93;;;10.60;99.90;;;;;;5040787;28;20032;-91
2024/02/11 11:17:53;;;;;;;18.33;9.73;;;10.60;99.90;;;;;;5058729;28;20087;-91
2024/02/11 11:20:20;;;;;;;17.63;9.35;;;10.60;99.90;;;;;;5041602;28;20025;-91
2024/02/11 11:22:54;;;;;;;18.13;8.77;;;10.60;99.90;;;;;;5040265;28;20455;-90
2024/02/11 11:25:22;;;;;;;;;;;10.70;99.90;;;;;;5039699;28;20041;-87
2024/02/11 11:27:48;;;;;;;18.48;7.97;;;10.70;99.90;;;;;;5057185;28;19915;-89
2024/02/11 11:30:14;;;;;;;19.02;9.35;;;10.70;99.90;;;;;;5039775;28;20025;-91
2024/02/11 11:32:48;;;;;;;17.17;7.63;;;10.70;99.90;;;;;;5040238;28;20024;-91
2024/02/11 11:35:16;;;;;;;24.42;9.68;;;10.70;99.90;;;;;;5058745;28;20064;-92
2024/02/11 11:37:43;;;;;;;18.95;8.65;;;10.70;99.90;;;;;;5040651;28;20060;-87
2024/02/11 11:40:10;;;;;;;16.65;8.27;;;10.70;99.90;;;;;;5061557;28;20021;-91
2024/02/11 11:42:36;;;;;;;20.88;9.25;;;10.70;99.90;;;;;;5040911;28;20024;-93
2024/02/11 11:45:10;;;;;;;17.83;8.55;;;10.60;99.90;;;;;;5040420;28;20481;-91
2024/02/11 11:47:36;;;;;;;18.52;8.55;;;10.70;99.90;;;;;;5057966;28;20023;-91
2024/02/11 11:50:06;;;;;;;22.83;8.77;;;10.70;99.90;;;;;;5062143;28;20033;-85
2024/02/11 11:52:35;;;;;;;20.85;8.90;;;10.70;99.90;;;;;;5042328;28;20021;-89
2024/02/11 11:55:04;;;;;;;18.45;7.72;;;10.70;99.90;;;;;;5037670;28;20523;-87
2024/02/11 11:57:31;;;;;;;21.60;8.43;;;10.70;99.90;;;;;;5037758;28;20031;-87
2024/02/11 12:00:00;;;;;;;18.10;8.30;;;10.70;99.90;;;;;;5037182;28;20021;-88
2024/02/11 12:02:26;;;;;;;16.75;8.15;;;10.80;99.90;;;;;;5038090;28;20029;-88
2024/02/11 12:04:53;;;;;;;18.25;8.18;;;10.80;99.90;;;;;;5040133;28;20027;-94
2024/02/11 12:07:20;;;;;;;20.45;7.60;;;10.80;99.90;;;;;;5057778;28;20100;-92
2024/02/11 12:09:46;;;;;;;15.10;7.90;;;10.80;99.90;;;;;;5042518;28;20025;-92
2024/02/11 12:12:12;;;;;;;17.02;8.07;;;10.80;99.90;;;;;;5065242;28;20496;-92
2024/02/11 12:14:38;;;;;;;23.35;8.40;;;10.70;99.90;;;;;;5042764;28;20071;-92
2024/02/11 12:17:04;;;;;;;19.70;8.02;;;10.80;99.90;;;;;;5039724;28;20025;-92
2024/02/11 12:19:43;;;;;;;23.33;8.10;;;10.80;99.90;;;;;;5059819;28;20028;-92
2024/02/11 12:22:09;;;;;;;19.58;8.60;;;10.80;99.90;;;;;;5041826;28;20063;-92
2024/02/11 12:24:44;;;;;;;15.40;7.20;;;10.80;99.90;;;;;;5040999;28;20185;-92
2024/02/11 12:27:14;;;;;;;16.50;7.47;;;10.80;99.90;;;;;;5057163;28;20477;-91
2024/02/11 12:29:41;;;;;;;17.88;7.00;;;10.80;99.90;;;;;;5041791;28;20055;-92
2024/02/11 12:32:09;;;;;;;16.92;7.60;;;10.80;99.90;;;;;;5041677;28;20418;-92
2024/02/11 12:34:37;;;;;;;19.35;8.40;;;10.80;99.90;;;;;;5041488;28;20028;-91